Pratts Hollow, New York
Current Conditions -  °F | °C
As of 12:53 AM on Monday 22 Dec 2014 (Local Time) from KRME Reporting Station
Overcast Overcast  
Wind Chill: 25°   Ceiling: 2600
Heat Index: 30°   Visibility: 10mi
Dew Point: 23°   Wind: 5mph
Humidity: 75%   Direction: 120°ESE
Pressure: 30.35"   Gusts: NA
Location:  42.9826°N, 75.5909°W
Report Text: KRME 220553Z AUTO 12004KT 10SM OVC026 M01/M05 A3035 RMK AO2 SLP283 T10111050 11006 21017 58003
Loading
Personal Weather Stations






























Interactive Weather Map New forecast layout! Learn more

10-Day Weather Forecast

Advertisements
Track Severe Weather on mobile